sensor_id;sensor_type;location;lat;lon;timestamp;pressure;altitude;pressure_sealevel;temperature;humidity
46448;BME280;32145;50.390;30.778;2023-12-20T00:01:40;99514.56;;;4.29;72.88
46448;BME280;32145;50.390;30.778;2023-12-20T00:04:36;99510.88;;;4.30;72.92
46448;BME280;32145;50.390;30.778;2023-12-20T00:07:33;99510.88;;;4.30;72.81
46448;BME280;32145;50.390;30.778;2023-12-20T00:10:29;99509.19;;;4.29;72.75
46448;BME280;32145;50.390;30.778;2023-12-20T00:13:25;99502.59;;;4.31;72.64
46448;BME280;32145;50.390;30.778;2023-12-20T00:16:23;99493.53;;;4.32;72.67
46448;BME280;32145;50.390;30.778;2023-12-20T00:19:19;99501.78;;;4.31;72.43
46448;BME280;32145;50.390;30.778;2023-12-20T00:22:13;99496.41;;;4.31;72.52
46448;BME280;32145;50.390;30.778;2023-12-20T00:25:08;99496.81;;;4.28;72.61
46448;BME280;32145;50.390;30.778;2023-12-20T00:28:03;99488.97;;;4.26;72.18
46448;BME280;32145;50.390;30.778;2023-12-20T00:30:57;99484.44;;;4.27;72.48
46448;BME280;32145;50.390;30.778;2023-12-20T00:33:53;99475.53;;;4.26;72.56
46448;BME280;32145;50.390;30.778;2023-12-20T00:36:47;99477.44;;;4.25;72.60
46448;BME280;32145;50.390;30.778;2023-12-20T00:39:43;99458.00;;;4.23;72.74
46448;BME280;32145;50.390;30.778;2023-12-20T00:42:40;99455.31;;;4.23;72.57
46448;BME280;32145;50.390;30.778;2023-12-20T00:45:34;99450.97;;;4.22;72.65
46448;BME280;32145;50.390;30.778;2023-12-20T00:48:28;99439.41;;;4.22;72.48
46448;BME280;32145;50.390;30.778;2023-12-20T00:51:24;99440.25;;;4.22;72.57
46448;BME280;32145;50.390;30.778;2023-12-20T00:54:18;99435.69;;;4.23;72.43
46448;BME280;32145;50.390;30.778;2023-12-20T00:57:13;99425.81;;;4.23;72.30
46448;BME280;32145;50.390;30.778;2023-12-20T01:00:07;99427.44;;;4.24;72.27
46448;BME280;32145;50.390;30.778;2023-12-20T01:03:03;99420.22;;;4.25;72.24
46448;BME280;32145;50.390;30.778;2023-12-20T01:05:57;99414.66;;;4.27;72.06
46448;BME280;32145;50.390;30.778;2023-12-20T01:08:55;99405.56;;;4.28;71.94
46448;BME280;32145;50.390;30.778;2023-12-20T01:11:51;99400.22;;;4.28;71.86
46448;BME280;32145;50.390;30.778;2023-12-20T01:14:47;99396.91;;;4.25;71.55
46448;BME280;32145;50.390;30.778;2023-12-20T01:17:43;99401.84;;;4.29;71.53
46448;BME280;32145;50.390;30.778;2023-12-20T01:20:40;99404.75;;;4.27;71.34
46448;BME280;32145;50.390;30.778;2023-12-20T01:23:36;99393.81;;;4.29;70.96
46448;BME280;32145;50.390;30.778;2023-12-20T01:26:33;99389.06;;;4.31;70.71
46448;BME280;32145;50.390;30.778;2023-12-20T01:29:28;99390.31;;;4.35;70.79
46448;BME280;32145;50.390;30.778;2023-12-20T01:32:24;99392.59;;;4.38;70.49
46448;BME280;32145;50.390;30.778;2023-12-20T01:35:20;99385.16;;;4.40;70.24
46448;BME280;32145;50.390;30.778;2023-12-20T01:38:16;99383.50;;;4.39;69.68
46448;BME280;32145;50.390;30.778;2023-12-20T01:41:13;99382.06;;;4.43;69.68
46448;BME280;32145;50.390;30.778;2023-12-20T01:44:10;99381.03;;;4.44;69.33
46448;BME280;32145;50.390;30.778;2023-12-20T01:47:08;99377.53;;;4.50;69.20
46448;BME280;32145;50.390;30.778;2023-12-20T01:50:06;99386.19;;;4.53;68.90
46448;BME280;32145;50.390;30.778;2023-12-20T01:53:04;99368.25;;;4.53;68.65
46448;BME280;32145;50.390;30.778;2023-12-20T01:56:02;99367.19;;;4.54;68.78
46448;BME280;32145;50.390;30.778;2023-12-20T01:58:58;99370.50;;;4.56;68.59
46448;BME280;32145;50.390;30.778;2023-12-20T02:01:56;99364.50;;;4.54;69.00
46448;BME280;32145;50.390;30.778;2023-12-20T02:04:53;99349.25;;;4.55;68.57
46448;BME280;32145;50.390;30.778;2023-12-20T02:07:49;99346.16;;;4.58;68.39
46448;BME280;32145;50.390;30.778;2023-12-20T02:10:45;99330.25;;;4.56;68.47
46448;BME280;32145;50.390;30.778;2023-12-20T02:13:41;99336.66;;;4.55;68.50
46448;BME280;32145;50.390;30.778;2023-12-20T02:16:38;99340.16;;;4.56;68.59
46448;BME280;32145;50.390;30.778;2023-12-20T02:19:35;99344.47;;;4.57;68.11
46448;BME280;32145;50.390;30.778;2023-12-20T02:22:33;99342.84;;;4.56;68.47
46448;BME280;32145;50.390;30.778;2023-12-20T02:25:28;99338.91;;;4.51;68.52
46448;BME280;32145;50.390;30.778;2023-12-20T02:28:24;99338.06;;;4.51;68.50
46448;BME280;32145;50.390;30.778;2023-12-20T02:31:21;99331.91;;;4.50;68.21
46448;BME280;32145;50.390;30.778;2023-12-20T02:34:17;99325.09;;;4.48;68.38
46448;BME280;32145;50.390;30.778;2023-12-20T02:37:13;99324.66;;;4.44;68.43
46448;BME280;32145;50.390;30.778;2023-12-20T02:40:11;99330.03;;;4.44;68.42
46448;BME280;32145;50.390;30.778;2023-12-20T02:43:05;99319.28;;;4.44;68.71
46448;BME280;32145;50.390;30.778;2023-12-20T02:46:00;99314.97;;;4.43;68.67
46448;BME280;32145;50.390;30.778;2023-12-20T02:48:54;99319.28;;;4.44;68.67
46448;BME280;32145;50.390;30.778;2023-12-20T02:51:48;99311.44;;;4.36;68.56
46448;BME280;32145;50.390;30.778;2023-12-20T02:54:42;99301.13;;;4.33;68.98
46448;BME280;32145;50.390;30.778;2023-12-20T02:57:38;99310.22;;;4.32;69.16
46448;BME280;32145;50.390;30.778;2023-12-20T03:00:32;99306.94;;;4.30;68.96
46448;BME280;32145;50.390;30.778;2023-12-20T03:03:27;99309.38;;;4.24;69.13
46448;BME280;32145;50.390;30.778;2023-12-20T03:06:21;99304.84;;;4.18;69.44
46448;BME280;32145;50.390;30.778;2023-12-20T03:09:15;99295.97;;;4.11;69.81
46448;BME280;32145;50.390;30.778;2023-12-20T03:12:10;99295.78;;;4.06;69.91
46448;BME280;32145;50.390;30.778;2023-12-20T03:15:06;99297.81;;;4.04;70.06
46448;BME280;32145;50.390;30.778;2023-12-20T03:18:01;99303.59;;;4.00;70.13
46448;BME280;32145;50.390;30.778;2023-12-20T03:20:55;99283.38;;;3.98;70.34
46448;BME280;32145;50.390;30.778;2023-12-20T03:23:49;99282.13;;;3.94;70.46
46448;BME280;32145;50.390;30.778;2023-12-20T03:26:44;99285.00;;;3.92;70.38
46448;BME280;32145;50.390;30.778;2023-12-20T03:29:38;99283.97;;;3.93;70.58
46448;BME280;32145;50.390;30.778;2023-12-20T03:32:36;99285.63;;;3.94;70.52
46448;BME280;32145;50.390;30.778;2023-12-20T03:35:33;99291.81;;;3.95;70.43
46448;BME280;32145;50.390;30.778;2023-12-20T03:38:29;99287.47;;;3.94;70.72
46448;BME280;32145;50.390;30.778;2023-12-20T03:41:25;99294.09;;;3.91;70.69
46448;BME280;32145;50.390;30.778;2023-12-20T03:44:21;99290.78;;;3.89;70.80
46448;BME280;32145;50.390;30.778;2023-12-20T03:47:16;99290.97;;;3.87;70.99
46448;BME280;32145;50.390;30.778;2023-12-20T03:50:11;99301.94;;;3.86;70.83
46448;BME280;32145;50.390;30.778;2023-12-20T03:53:06;99298.81;;;3.89;70.78
46448;BME280;32145;50.390;30.778;2023-12-20T03:56:00;99299.84;;;3.88;70.79
46448;BME280;32145;50.390;30.778;2023-12-20T03:58:54;99303.97;;;3.91;70.78
46448;BME280;32145;50.390;30.778;2023-12-20T04:01:49;99302.34;;;3.90;70.62
46448;BME280;32145;50.390;30.778;2023-12-20T04:04:45;99299.25;;;3.86;70.63
46448;BME280;32145;50.390;30.778;2023-12-20T04:07:42;99305.63;;;3.85;70.84
46448;BME280;32145;50.390;30.778;2023-12-20T04:10:39;99297.78;;;3.83;70.88
46448;BME280;32145;50.390;30.778;2023-12-20T04:13:35;99294.69;;;3.80;70.73
46448;BME280;32145;50.390;30.778;2023-12-20T04:16:31;99284.75;;;3.73;70.67
46448;BME280;32145;50.390;30.778;2023-12-20T04:19:26;99296.31;;;3.67;70.68
46448;BME280;32145;50.390;30.778;2023-12-20T04:22:20;99299.78;;;3.61;70.76
46448;BME280;32145;50.390;30.778;2023-12-20T04:25:17;99298.53;;;3.57;70.91
46448;BME280;32145;50.390;30.778;2023-12-20T04:28:14;99305.13;;;3.47;71.08
46448;BME280;32145;50.390;30.778;2023-12-20T04:31:10;99305.50;;;3.44;71.75
46448;BME280;32145;50.390;30.778;2023-12-20T04:34:06;99303.88;;;3.43;71.61
46448;BME280;32145;50.390;30.778;2023-12-20T04:37:03;99310.47;;;3.47;71.71
46448;BME280;32145;50.390;30.778;2023-12-20T04:39:59;99312.13;;;3.48;71.44
46448;BME280;32145;50.390;30.778;2023-12-20T04:42:57;99304.47;;;3.45;71.55
46448;BME280;32145;50.390;30.778;2023-12-20T04:45:54;99305.13;;;3.47;71.63
46448;BME280;32145;50.390;30.778;2023-12-20T04:48:50;99295.00;;;3.50;71.21
46448;BME280;32145;50.390;30.778;2023-12-20T04:51:46;99299.78;;;3.54;71.55
46448;BME280;32145;50.390;30.778;2023-12-20T04:54:42;99308.66;;;3.55;71.58
46448;BME280;32145;50.390;30.778;2023-12-20T04:57:38;99313.19;;;3.54;71.25
46448;BME280;32145;50.390;30.778;2023-12-20T05:00:36;99309.66;;;3.54;71.41
46448;BME280;32145;50.390;30.778;2023-12-20T05:03:33;99312.97;;;3.56;71.27
46448;BME280;32145;50.390;30.778;2023-12-20T05:06:27;99309.66;;;3.54;71.28
46448;BME280;32145;50.390;30.778;2023-12-20T05:09:23;99308.84;;;3.53;71.11
46448;BME280;32145;50.390;30.778;2023-12-20T05:12:19;99312.13;;;3.55;71.07
46448;BME280;32145;50.390;30.778;2023-12-20T05:15:16;99311.34;;;3.55;71.08
46448;BME280;32145;50.390;30.778;2023-12-20T05:18:13;99308.00;;;3.53;70.87
46448;BME280;32145;50.390;30.778;2023-12-20T05:21:08;99309.88;;;3.52;70.78
46448;BME280;32145;50.390;30.778;2023-12-20T05:24:02;99311.72;;;3.52;70.65
46448;BME280;32145;50.390;30.778;2023-12-20T05:26:56;99302.25;;;3.56;70.71
46448;BME280;32145;50.390;30.778;2023-12-20T05:29:51;99307.22;;;3.59;70.65
46448;BME280;32145;50.390;30.778;2023-12-20T05:32:45;99304.75;;;3.64;70.30
46448;BME280;32145;50.390;30.778;2023-12-20T05:35:40;99296.31;;;3.67;70.12
46448;BME280;32145;50.390;30.778;2023-12-20T05:38:37;99295.91;;;3.70;70.03
46448;BME280;32145;50.390;30.778;2023-12-20T05:41:33;99298.16;;;3.73;69.72
46448;BME280;32145;50.390;30.778;2023-12-20T05:44:29;99305.19;;;3.74;69.43
46448;BME280;32145;50.390;30.778;2023-12-20T05:47:26;99301.47;;;3.76;69.59
46448;BME280;32145;50.390;30.778;2023-12-20T05:50:22;99310.56;;;3.74;69.32
46448;BME280;32145;50.390;30.778;2023-12-20T05:53:19;99307.25;;;3.72;69.29
46448;BME280;32145;50.390;30.778;2023-12-20T05:56:16;99308.47;;;3.70;69.43
46448;BME280;32145;50.390;30.778;2023-12-20T05:59:12;99316.72;;;3.68;69.49
46448;BME280;32145;50.390;30.778;2023-12-20T06:02:08;99322.47;;;3.65;69.67
46448;BME280;32145;50.390;30.778;2023-12-20T06:05:05;99326.19;;;3.64;69.69
46448;BME280;32145;50.390;30.778;2023-12-20T06:08:02;99313.84;;;3.63;69.74
46448;BME280;32145;50.390;30.778;2023-12-20T06:10:57;99312.78;;;3.64;69.88
46448;BME280;32145;50.390;30.778;2023-12-20T06:13:52;99305.78;;;3.63;69.90
46448;BME280;32145;50.390;30.778;2023-12-20T06:16:46;99310.13;;;3.64;69.79
46448;BME280;32145;50.390;30.778;2023-12-20T06:19:40;99305.38;;;3.66;69.88
46448;BME280;32145;50.390;30.778;2023-12-20T06:22:36;99300.44;;;3.70;69.86
46448;BME280;32145;50.390;30.778;2023-12-20T06:25:33;99305.19;;;3.74;69.76
46448;BME280;32145;50.390;30.778;2023-12-20T06:28:28;99307.06;;;3.81;69.76
46448;BME280;32145;50.390;30.778;2023-12-20T06:31:23;99308.94;;;3.87;69.42
46448;BME280;32145;50.390;30.778;2023-12-20T06:34:17;99309.16;;;3.92;69.36
46448;BME280;32145;50.390;30.778;2023-12-20T06:37:11;99310.38;;;3.96;69.48
46448;BME280;32145;50.390;30.778;2023-12-20T06:40:07;99309.59;;;4.03;68.98
46448;BME280;32145;50.390;30.778;2023-12-20T06:43:01;99304.41;;;4.08;68.83
46448;BME280;32145;50.390;30.778;2023-12-20T06:45:57;99313.91;;;4.17;68.67
46448;BME280;32145;50.390;30.778;2023-12-20T06:48:51;99315.16;;;4.21;68.58
46448;BME280;32145;50.390;30.778;2023-12-20T06:51:47;99311.47;;;4.22;68.25
46448;BME280;32145;50.390;30.778;2023-12-20T06:54:44;99318.06;;;4.27;67.93
46448;BME280;32145;50.390;30.778;2023-12-20T06:57:40;99318.91;;;4.34;67.82
46448;BME280;32145;50.390;30.778;2023-12-20T07:00:36;99315.38;;;4.40;67.60
46448;BME280;32145;50.390;30.778;2023-12-20T07:03:34;99309.19;;;4.46;67.26
46448;BME280;32145;50.390;30.778;2023-12-20T07:06:30;99312.69;;;4.54;67.36
46448;BME280;32145;50.390;30.778;2023-12-20T07:09:26;99307.53;;;4.59;66.58
46448;BME280;32145;50.390;30.778;2023-12-20T07:12:20;99311.44;;;4.63;66.32
46448;BME280;32145;50.390;30.778;2023-12-20T07:15:15;99302.34;;;4.64;65.86
46448;BME280;32145;50.390;30.778;2023-12-20T07:18:09;99306.47;;;4.73;66.02
46448;BME280;32145;50.390;30.778;2023-12-20T07:21:05;99303.97;;;4.79;66.06
46448;BME280;32145;50.390;30.778;2023-12-20T07:23:59;99296.53;;;4.81;65.58
46448;BME280;32145;50.390;30.778;2023-12-20T07:26:53;99295.31;;;4.83;65.48
46448;BME280;32145;50.390;30.778;2023-12-20T07:29:48;99290.97;;;4.89;65.34
46448;BME280;32145;50.390;30.778;2023-12-20T07:32:42;99294.44;;;4.89;65.20
46448;BME280;32145;50.390;30.778;2023-12-20T07:35:38;99283.06;;;5.01;65.23
46448;BME280;32145;50.390;30.778;2023-12-20T07:38:35;99285.31;;;5.11;64.38
46448;BME280;32145;50.390;30.778;2023-12-20T07:41:32;99289.59;;;5.19;64.43
46448;BME280;32145;50.390;30.778;2023-12-20T07:44:28;99297.84;;;5.31;64.04
46448;BME280;32145;50.390;30.778;2023-12-20T07:47:24;99288.47;;;5.40;64.23
46448;BME280;32145;50.390;30.778;2023-12-20T07:50:21;99289.28;;;5.47;63.06
46448;BME280;32145;50.390;30.778;2023-12-20T07:53:17;99288.44;;;5.53;62.96
46448;BME280;32145;50.390;30.778;2023-12-20T07:56:15;99282.97;;;5.67;62.93
46448;BME280;32145;50.390;30.778;2023-12-20T07:59:09;99286.63;;;5.79;62.51
46448;BME280;32145;50.390;30.778;2023-12-20T08:02:04;99289.50;;;5.85;62.41
46448;BME280;32145;50.390;30.778;2023-12-20T08:04:58;99278.63;;;5.98;62.16
46448;BME280;32145;50.390;30.778;2023-12-20T08:07:53;99281.47;;;6.10;61.41
46448;BME280;32145;50.390;30.778;2023-12-20T08:10:47;99259.91;;;6.17;61.98
46448;BME280;32145;50.390;30.778;2023-12-20T08:13:42;99261.53;;;6.18;61.46
46448;BME280;32145;50.390;30.778;2023-12-20T08:16:39;99244.34;;;6.19;61.13
46448;BME280;32145;50.390;30.778;2023-12-20T08:19:35;99252.63;;;6.17;60.89
46448;BME280;32145;50.390;30.778;2023-12-20T08:22:31;99273.94;;;6.19;61.35
46448;BME280;32145;50.390;30.778;2023-12-20T08:25:28;99275.59;;;6.20;61.48
46448;BME280;32145;50.390;30.778;2023-12-20T08:28:24;99263.38;;;6.24;61.43
46448;BME280;32145;50.390;30.778;2023-12-20T08:31:22;99259.78;;;6.30;61.95
46448;BME280;32145;50.390;30.778;2023-12-20T08:34:18;99266.38;;;6.35;60.87
46448;BME280;32145;50.390;30.778;2023-12-20T08:37:14;99261.63;;;6.30;61.47
46448;BME280;32145;50.390;30.778;2023-12-20T08:40:11;99263.09;;;6.32;61.72
46448;BME280;32145;50.390;30.778;2023-12-20T08:43:07;99244.25;;;6.32;61.42
46448;BME280;32145;50.390;30.778;2023-12-20T08:46:03;99251.06;;;6.35;61.48
46448;BME280;32145;50.390;30.778;2023-12-20T08:48:59;99251.41;;;6.39;62.22
46448;BME280;32145;50.390;30.778;2023-12-20T08:51:54;99236.03;;;6.46;62.23
46448;BME280;32145;50.390;30.778;2023-12-20T08:54:48;99231.84;;;6.50;62.06
46448;BME280;32145;50.390;30.778;2023-12-20T08:57:42;99240.16;;;6.49;61.34
46448;BME280;32145;50.390;30.778;2023-12-20T09:00:38;99238.50;;;6.48;61.29
46448;BME280;32145;50.390;30.778;2023-12-20T09:03:35;99234.41;;;6.45;60.81
46448;BME280;32145;50.390;30.778;2023-12-20T09:06:32;99229.81;;;6.45;61.00
46448;BME280;32145;50.390;30.778;2023-12-20T09:09:29;99238.50;;;6.48;60.63
46448;BME280;32145;50.390;30.778;2023-12-20T09:12:25;99225.25;;;6.46;60.44
46448;BME280;32145;50.390;30.778;2023-12-20T09:15:21;99233.34;;;6.46;60.38
46448;BME280;32145;50.390;30.778;2023-12-20T09:18:18;99211.94;;;6.51;60.76
46448;BME280;32145;50.390;30.778;2023-12-20T09:21:14;99199.53;;;6.50;60.16
46448;BME280;32145;50.390;30.778;2023-12-20T09:24:12;99203.19;;;6.56;60.71
46448;BME280;32145;50.390;30.778;2023-12-20T09:27:08;99200.44;;;6.63;60.32
46448;BME280;32145;50.390;30.778;2023-12-20T09:30:05;99195.66;;;6.65;59.04
46448;BME280;32145;50.390;30.778;2023-12-20T09:33:02;99193.09;;;6.70;58.64
46448;BME280;32145;50.390;30.778;2023-12-20T09:35:59;99191.38;;;6.76;57.52
46448;BME280;32145;50.390;30.778;2023-12-20T09:38:55;99191.53;;;6.81;58.01
46448;BME280;32145;50.390;30.778;2023-12-20T09:42:00;99189.72;;;6.93;58.00
46448;BME280;32145;50.390;30.778;2023-12-20T09:44:59;99187.31;;;7.04;57.37
46448;BME280;32145;50.390;30.778;2023-12-20T09:47:58;99183.50;;;7.12;57.36
46448;BME280;32145;50.390;30.778;2023-12-20T09:50:55;99182.34;;;7.19;57.11
46448;BME280;32145;50.390;30.778;2023-12-20T09:53:54;99184.13;;;7.26;56.34
46448;BME280;32145;50.390;30.778;2023-12-20T09:56:51;99184.84;;;7.33;56.34
46448;BME280;32145;50.390;30.778;2023-12-20T09:59:48;99196.38;;;7.40;55.82
46448;BME280;32145;50.390;30.778;2023-12-20T10:02:48;99203.53;;;7.46;56.57
46448;BME280;32145;50.390;30.778;2023-12-20T10:05:46;99197.44;;;7.51;56.16
46448;BME280;32145;50.390;30.778;2023-12-20T10:08:43;99203.66;;;7.52;55.82
46448;BME280;32145;50.390;30.778;2023-12-20T10:11:39;99199.13;;;7.52;55.33
46448;BME280;32145;50.390;30.778;2023-12-20T10:14:36;99197.00;;;7.54;54.05
46448;BME280;32145;50.390;30.778;2023-12-20T10:17:36;99205.69;;;7.56;53.69
46448;BME280;32145;50.390;30.778;2023-12-20T10:20:31;99201.94;;;7.57;53.17
46448;BME280;32145;50.390;30.778;2023-12-20T10:23:27;99197.59;;;7.56;52.87
46448;BME280;32145;50.390;30.778;2023-12-20T10:26:25;99191.13;;;7.57;52.99
46448;BME280;32145;50.390;30.778;2023-12-20T10:29:21;99192.78;;;7.58;53.13
46448;BME280;32145;50.390;30.778;2023-12-20T10:32:23;99186.34;;;7.59;52.61
46448;BME280;32145;50.390;30.778;2023-12-20T10:35:21;99184.47;;;7.60;53.04
46448;BME280;32145;50.390;30.778;2023-12-20T10:38:18;99182.59;;;7.60;52.75
46448;BME280;32145;50.390;30.778;2023-12-20T10:41:14;99190.22;;;7.64;52.36
46448;BME280;32145;50.390;30.778;2023-12-20T10:44:12;99192.66;;;7.65;52.73
46448;BME280;32145;50.390;30.778;2023-12-20T10:47:11;99189.97;;;7.65;52.63
46448;BME280;32145;50.390;30.778;2023-12-20T10:50:09;99178.94;;;7.67;52.84
46448;BME280;32145;50.390;30.778;2023-12-20T10:53:07;99177.91;;;7.68;52.78
46448;BME280;32145;50.390;30.778;2023-12-20T10:56:05;99170.41;;;7.70;52.82
46448;BME280;32145;50.390;30.778;2023-12-20T10:59:02;99165.63;;;7.72;53.26
46448;BME280;32145;50.390;30.778;2023-12-20T11:01:59;99165.13;;;7.75;52.69
46448;BME280;32145;50.390;30.778;2023-12-20T11:04:59;99167.38;;;7.78;53.11
46448;BME280;32145;50.390;30.778;2023-12-20T11:08:02;99148.47;;;7.78;52.97
46448;BME280;32145;50.390;30.778;2023-12-20T11:11:03;99150.94;;;7.80;52.97
46448;BME280;32145;50.390;30.778;2023-12-20T11:14:03;99150.16;;;7.79;53.74
46448;BME280;32145;50.390;30.778;2023-12-20T11:17:08;99152.59;;;7.81;52.90
46448;BME280;32145;50.390;30.778;2023-12-20T11:20:07;99146.50;;;7.85;53.41
46448;BME280;32145;50.390;30.778;2023-12-20T11:23:05;99142.16;;;7.84;53.89
46448;BME280;32145;50.390;30.778;2023-12-20T11:26:03;99125.97;;;7.84;53.60
46448;BME280;32145;50.390;30.778;2023-12-20T11:29:30;99130.53;;;7.84;53.13
46448;BME280;32145;50.390;30.778;2023-12-20T11:32:29;99132.66;;;7.82;54.25
46448;BME280;32145;50.390;30.778;2023-12-20T11:35:25;99128.06;;;7.82;53.67
46448;BME280;32145;50.390;30.778;2023-12-20T11:38:22;99129.13;;;7.81;54.08
46448;BME280;32145;50.390;30.778;2023-12-20T11:41:22;99124.78;;;7.80;54.63
46448;BME280;32145;50.390;30.778;2023-12-20T11:44:20;99112.59;;;7.78;54.69
46448;BME280;32145;50.390;30.778;2023-12-20T11:47:17;99120.09;;;7.76;55.01
46448;BME280;32145;50.390;30.778;2023-12-20T11:50:14;99120.09;;;7.64;55.02
46448;BME280;32145;50.390;30.778;2023-12-20T11:53:10;99120.75;;;7.47;55.50
46448;BME280;32145;50.390;30.778;2023-12-20T11:56:07;99113.47;;;7.35;56.03
46448;BME280;32145;50.390;30.778;2023-12-20T11:59:07;99114.06;;;7.38;55.96
46448;BME280;32145;50.390;30.778;2023-12-20T12:02:04;99114.66;;;7.40;56.43
46448;BME280;32145;50.390;30.778;2023-12-20T12:05:00;99102.69;;;7.47;55.91
46448;BME280;32145;50.390;30.778;2023-12-20T12:07:57;99101.19;;;7.52;56.45
46448;BME280;32145;50.390;30.778;2023-12-20T12:10:53;99104.25;;;7.55;56.04
46448;BME280;32145;50.390;30.778;2023-12-20T12:13:49;99097.34;;;7.59;55.91
46448;BME280;32145;50.390;30.778;2023-12-20T12:16:47;99098.38;;;7.58;55.90
46448;BME280;32145;50.390;30.778;2023-12-20T12:19:43;99095.31;;;7.55;56.18
46448;BME280;32145;50.390;30.778;2023-12-20T12:22:37;99092.84;;;7.53;56.25
46448;BME280;32145;50.390;30.778;2023-12-20T12:25:34;99092.03;;;7.53;56.25
46448;BME280;32145;50.390;30.778;2023-12-20T12:28:28;99080.44;;;7.52;56.20
46448;BME280;32145;50.390;30.778;2023-12-20T12:31:23;99076.44;;;7.55;56.60
46448;BME280;32145;50.390;30.778;2023-12-20T12:34:19;99072.91;;;7.54;56.77
46448;BME280;32145;50.390;30.778;2023-12-20T12:37:13;99071.28;;;7.53;56.87
46448;BME280;32145;50.390;30.778;2023-12-20T12:40:10;99078.91;;;7.56;56.37
46448;BME280;32145;50.390;30.778;2023-12-20T12:43:07;99076.22;;;7.56;56.55
46448;BME280;32145;50.390;30.778;2023-12-20T12:46:03;99078.09;;;7.56;56.96
46448;BME280;32145;50.390;30.778;2023-12-20T12:49:00;99072.13;;;7.54;56.66
46448;BME280;32145;50.390;30.778;2023-12-20T12:51:57;99066.81;;;7.47;56.72
46448;BME280;32145;50.390;30.778;2023-12-20T12:54:54;99067.16;;;7.39;57.08
46448;BME280;32145;50.390;30.778;2023-12-20T12:57:50;99062.69;;;7.32;57.17
46448;BME280;32145;50.390;30.778;2023-12-20T13:00:46;99064.69;;;7.25;57.34
46448;BME280;32145;50.390;30.778;2023-12-20T13:03:42;99051.53;;;7.17;57.86
46448;BME280;32145;50.390;30.778;2023-12-20T13:06:39;99057.84;;;7.11;57.78
46448;BME280;32145;50.390;30.778;2023-12-20T13:09:37;99057.50;;;7.07;58.36
46448;BME280;32145;50.390;30.778;2023-12-20T13:12:31;99051.84;;;6.96;57.99
46448;BME280;32145;50.390;30.778;2023-12-20T13:15:28;99058.38;;;6.89;58.21
46448;BME280;32145;50.390;30.778;2023-12-20T13:18:24;99050.03;;;6.78;59.19
46448;BME280;32145;50.390;30.778;2023-12-20T13:21:20;99055.16;;;6.68;58.93
46448;BME280;32145;50.390;30.778;2023-12-20T13:24:16;99050.06;;;6.60;59.41
46448;BME280;32145;50.390;30.778;2023-12-20T13:27:12;99033.63;;;6.49;59.99
46448;BME280;32145;50.390;30.778;2023-12-20T13:30:07;99026.91;;;6.40;60.21
46448;BME280;32145;50.390;30.778;2023-12-20T13:33:02;99028.88;;;6.32;60.27
46448;BME280;32145;50.390;30.778;2023-12-20T13:35:56;99026.25;;;6.26;60.31
46448;BME280;32145;50.390;30.778;2023-12-20T13:38:51;99026.56;;;6.17;61.36
46448;BME280;32145;50.390;30.778;2023-12-20T13:41:45;99019.00;;;6.08;61.09
46448;BME280;32145;50.390;30.778;2023-12-20T13:44:41;99014.97;;;5.98;61.11
46448;BME280;32145;50.390;30.778;2023-12-20T13:47:35;99010.53;;;5.85;61.34
46448;BME280;32145;50.390;30.778;2023-12-20T13:50:30;99018.06;;;5.76;62.25
46448;BME280;32145;50.390;30.778;2023-12-20T13:53:24;99007.63;;;5.68;62.00
46448;BME280;32145;50.390;30.778;2023-12-20T13:56:20;99010.16;;;5.63;63.00
46448;BME280;32145;50.390;30.778;2023-12-20T13:59:16;99012.25;;;5.61;62.70
46448;BME280;32145;50.390;30.778;2023-12-20T14:02:12;98998.72;;;5.49;63.07
46448;BME280;32145;50.390;30.778;2023-12-20T14:05:08;98991.59;;;5.36;63.02
46448;BME280;32145;50.390;30.778;2023-12-20T14:08:03;99003.31;;;5.23;63.63
46448;BME280;32145;50.390;30.778;2023-12-20T14:10:57;98997.16;;;5.15;63.61
46448;BME280;32145;50.390;30.778;2023-12-20T14:13:51;99000.56;;;5.04;64.29
46448;BME280;32145;50.390;30.778;2023-12-20T14:16:45;99001.25;;;4.93;64.52
46448;BME280;32145;50.390;30.778;2023-12-20T14:19:41;99005.00;;;4.85;64.79
46448;BME280;32145;50.390;30.778;2023-12-20T14:22:35;99003.63;;;4.75;64.86
46448;BME280;32145;50.390;30.778;2023-12-20T14:25:30;99015.69;;;4.66;65.48
46448;BME280;32145;50.390;30.778;2023-12-20T14:28:24;99008.09;;;4.56;65.57
46448;BME280;32145;50.390;30.778;2023-12-20T14:31:20;99012.88;;;4.47;66.04
46448;BME280;32145;50.390;30.778;2023-12-20T14:34:16;99013.31;;;4.44;66.45
46448;BME280;32145;50.390;30.778;2023-12-20T14:37:14;99012.88;;;4.47;66.60
46448;BME280;32145;50.390;30.778;2023-12-20T14:40:11;99004.84;;;4.47;66.87
46448;BME280;32145;50.390;30.778;2023-12-20T14:43:07;99007.91;;;4.51;66.97
46448;BME280;32145;50.390;30.778;2023-12-20T14:46:01;99005.47;;;4.49;66.96
46448;BME280;32145;50.390;30.778;2023-12-20T14:48:56;99004.25;;;4.45;67.00
46448;BME280;32145;50.390;30.778;2023-12-20T14:51:52;98999.72;;;4.39;67.23
46448;BME280;32145;50.390;30.778;2023-12-20T14:54:49;98992.50;;;4.33;67.51
46448;BME280;32145;50.390;30.778;2023-12-20T14:57:46;98999.34;;;4.29;67.62
46448;BME280;32145;50.390;30.778;2023-12-20T15:00:43;98995.44;;;4.24;67.71
46448;BME280;32145;50.390;30.778;2023-12-20T15:03:39;98996.31;;;4.18;67.97
46448;BME280;32145;50.390;30.778;2023-12-20T15:06:36;98993.44;;;4.13;68.10
46448;BME280;32145;50.390;30.778;2023-12-20T15:09:33;99006.41;;;4.16;68.40
46448;BME280;32145;50.390;30.778;2023-12-20T15:12:30;99006.19;;;4.24;68.53
46448;BME280;32145;50.390;30.778;2023-12-20T15:15:27;99010.50;;;4.32;68.70
46448;BME280;32145;50.390;30.778;2023-12-20T15:18:21;99013.53;;;4.43;68.42
46448;BME280;32145;50.390;30.778;2023-12-20T15:21:16;99012.88;;;4.47;68.78
46448;BME280;32145;50.390;30.778;2023-12-20T15:24:12;99012.47;;;4.50;68.46
46448;BME280;32145;50.390;30.778;2023-12-20T15:27:09;99025.00;;;4.57;68.68
46448;BME280;32145;50.390;30.778;2023-12-20T15:30:08;99022.31;;;4.63;68.01
46448;BME280;32145;50.390;30.778;2023-12-20T15:33:04;98992.53;;;4.65;68.42